Time;durP1;ratioP1;P1;durP2;ratioP2;P2;SDS_P1;SDS_P2;PMS_P1;PMS_P2;Temp;Humidity;BMP_temperature;BMP_pressure;BME280_temperature;BME280_humidity;BME280_pressure;Samples;Min_cycle;Max_cycle;Signal;HPM_P1;HPM_P2
2023/04/11 00:00:35;;;;;;;1.60;0.80;;;18.30;99.90;;;;;;5102243;27;20205;-75
2023/04/11 00:03:07;;;;;;;3.08;1.00;;;18.50;99.90;;;;;;5101840;27;20225;-76
2023/04/11 00:05:40;;;;;;;3.60;0.80;;;18.50;99.90;;;;;;5101992;27;20322;-76
2023/04/11 00:08:13;;;;;;;2.38;1.00;;;18.50;99.90;;;;;;5102223;27;20259;-76
2023/04/11 00:10:44;;;;;;;3.33;1.00;;;18.50;99.90;;;;;;5101771;27;20205;-76
2023/04/11 00:13:18;;;;;;;4.28;1.10;;;18.60;99.90;;;;;;5101045;27;20229;-75
2023/04/11 00:15:52;;;;;;;2.50;0.85;;;18.60;99.90;;;;;;5102586;27;20190;-75
2023/04/11 00:18:24;;;;;;;4.07;1.00;;;18.90;99.90;;;;;;5102191;27;20198;-76
2023/04/11 00:20:55;;;;;;;2.33;0.88;;;19.00;99.90;;;;;;5101732;27;20640;-76
2023/04/11 00:23:30;;;;;;;1.75;0.90;;;19.00;99.90;;;;;;5106494;27;20700;-76
2023/04/11 00:26:01;;;;;;;4.20;0.90;;;19.00;99.90;;;;;;5100924;27;20202;-77
2023/04/11 00:28:32;;;;;;;2.40;0.90;;;19.00;99.90;;;;;;5101360;27;20194;-75
2023/04/11 00:31:04;;;;;;;3.25;0.95;;;18.90;99.90;;;;;;5100222;27;20302;-76
2023/04/11 00:33:35;;;;;;;3.78;1.10;;;19.10;99.90;;;;;;5100758;27;20206;-75
2023/04/11 00:36:06;;;;;;;3.95;1.00;;;19.10;99.90;;;;;;5101407;27;20194;-75
2023/04/11 00:38:41;;;;;;;2.83;1.05;;;19.20;99.90;;;;;;5120133;27;20198;-76
2023/04/11 00:41:12;;;;;;;2.72;1.23;;;19.30;99.90;;;;;;5131047;27;20201;-76
2023/04/11 00:43:43;;;;;;;2.78;1.10;;;19.50;99.90;;;;;;5126833;27;20233;-76
2023/04/11 00:46:15;;;;;;;1.85;1.02;;;19.60;99.90;;;;;;5132792;27;20200;-76
2023/04/11 00:48:47;;;;;;;3.60;1.30;;;19.80;99.90;;;;;;5131994;27;20254;-76
2023/04/11 00:51:21;;;;;;;7.22;0.90;;;19.90;99.90;;;;;;5122851;27;20293;-76
2023/04/11 00:53:56;;;;;;;2.88;1.00;;;19.90;99.90;;;;;;5131624;27;20193;-76
2023/04/11 00:56:27;;;;;;;3.83;1.10;;;19.80;99.90;;;;;;5134849;27;20578;-75
2023/04/11 00:59:01;;;;;;;2.30;0.75;;;19.80;99.90;;;;;;5131203;27;20579;-75
2023/04/11 01:01:34;;;;;;;3.80;1.27;;;19.80;99.90;;;;;;5131776;27;20213;-76
2023/04/11 01:04:06;;;;;;;1.80;0.80;;;19.90;99.90;;;;;;5123112;27;20198;-76
2023/04/11 01:06:38;;;;;;;1.10;0.80;;;20.00;99.90;;;;;;5133505;27;20217;-76
2023/04/11 01:09:11;;;;;;;2.25;0.77;;;20.10;99.90;;;;;;5131157;27;20198;-76
2023/04/11 01:11:42;;;;;;;1.77;0.88;;;20.10;99.90;;;;;;5131918;27;20198;-76
2023/04/11 01:14:15;;;;;;;1.90;0.90;;;20.20;99.90;;;;;;5129764;27;20194;-76
2023/04/11 01:16:49;;;;;;;3.03;0.80;;;20.30;99.90;;;;;;5132030;27;20205;-76
2023/04/11 01:19:22;;;;;;;3.40;1.17;;;20.40;99.90;;;;;;5125508;27;20194;-76
2023/04/11 01:21:55;;;;;;;1.90;0.80;;;20.60;99.90;;;;;;5131372;27;20242;-76
2023/04/11 01:24:28;;;;;;;3.50;1.10;;;20.60;99.90;;;;;;5123408;27;20591;-76
2023/04/11 01:26:59;;;;;;;3.03;1.08;;;20.60;99.90;;;;;;5131282;27;20197;-76
2023/04/11 01:29:30;;;;;;;3.72;1.27;;;20.60;99.90;;;;;;5131420;27;20743;-76
2023/04/11 01:32:01;;;;;;;2.22;0.90;;;20.60;99.90;;;;;;5106933;27;20222;-75
2023/04/11 01:34:36;;;;;;;4.13;0.90;;;20.80;99.90;;;;;;5099457;27;20205;-74
2023/04/11 01:37:08;;;;;;;2.28;1.00;;;20.80;99.90;;;;;;5101149;27;20649;-75
2023/04/11 01:39:41;;;;;;;4.78;1.00;;;20.90;99.90;;;;;;5096848;27;20198;-75
2023/04/11 01:42:12;;;;;;;1.88;0.90;;;21.00;99.90;;;;;;5097741;27;20224;-75
2023/04/11 01:44:44;;;;;;;3.22;0.93;;;21.10;99.90;;;;;;5102535;27;20195;-76
2023/04/11 01:47:15;;;;;;;2.88;1.10;;;21.20;99.90;;;;;;5094695;27;20199;-76
2023/04/11 01:49:46;;;;;;;2.85;0.90;;;21.30;99.90;;;;;;5097499;27;20222;-76
2023/04/11 01:52:17;;;;;;;1.83;0.80;;;21.40;99.90;;;;;;5108752;27;20202;-75
2023/04/11 01:54:50;;;;;;;2.17;0.85;;;21.20;99.90;;;;;;5093828;27;20629;-75
2023/04/11 01:57:22;;;;;;;2.20;0.70;;;21.20;99.90;;;;;;5103296;27;20236;-75
2023/04/11 01:59:53;;;;;;;3.83;0.80;;;21.20;99.90;;;;;;5098956;27;20556;-75
2023/04/11 02:02:24;;;;;;;2.42;0.80;;;21.10;99.90;;;;;;5095385;27;20224;-76
2023/04/11 02:04:55;;;;;;;3.72;1.10;;;21.20;99.90;;;;;;5094237;27;20199;-76
2023/04/11 02:07:26;;;;;;;7.00;1.33;;;21.30;99.90;;;;;;5096127;27;20218;-75
2023/04/11 02:10:00;;;;;;;4.50;0.90;;;21.40;99.90;;;;;;5096683;27;20194;-76
2023/04/11 02:12:31;;;;;;;1.77;0.80;;;21.30;99.90;;;;;;5094348;27;20203;-76
2023/04/11 02:15:02;;;;;;;3.85;1.10;;;21.10;99.90;;;;;;5096642;27;20190;-76
2023/04/11 02:17:33;;;;;;;8.93;1.92;;;21.20;99.90;;;;;;5095517;27;20199;-75
2023/04/11 02:20:06;;;;;;;8.02;1.60;;;21.40;99.90;;;;;;5094708;27;20209;-75
2023/04/11 02:22:38;;;;;;;8.68;1.60;;;21.40;99.90;;;;;;5105676;27;20226;-77
2023/04/11 02:25:11;;;;;;;4.50;1.15;;;21.50;99.90;;;;;;5125805;27;20202;-77
2023/04/11 02:27:42;;;;;;;4.35;1.27;;;21.60;99.90;;;;;;5112735;27;20233;-77
2023/04/11 02:30:14;;;;;;;5.90;1.42;;;21.50;99.90;;;;;;5094850;27;20213;-78
2023/04/11 02:32:45;;;;;;;12.90;1.95;;;21.60;99.90;;;;;;5099156;27;20556;-78
2023/04/11 02:35:16;;;;;;;19.27;2.92;;;21.80;99.90;;;;;;5095955;27;20197;-76
2023/04/11 02:37:47;;;;;;;10.93;1.70;;;22.00;99.90;;;;;;5091661;27;20198;-77
2023/04/11 02:40:20;;;;;;;5.63;1.70;;;22.00;99.90;;;;;;5091904;27;20198;-77
2023/04/11 02:42:51;;;;;;;5.60;1.42;;;22.20;99.90;;;;;;5092934;27;20222;-77
2023/04/11 02:45:22;;;;;;;2.90;1.13;;;22.30;99.90;;;;;;5095260;27;20199;-78
2023/04/11 02:47:53;;;;;;;3.30;1.15;;;22.40;99.90;;;;;;5096622;27;21278;-77
2023/04/11 02:50:25;;;;;;;3.97;1.35;;;22.50;99.90;;;;;;5093309;27;20212;-77
2023/04/11 02:52:56;;;;;;;4.03;1.10;;;22.60;99.90;;;;;;5109612;27;20205;-77
2023/04/11 02:55:29;;;;;;;4.95;1.38;;;22.60;99.90;;;;;;5128967;28;20198;-77
2023/04/11 02:58:00;;;;;;;5.28;1.40;;;22.70;99.90;;;;;;5131260;27;20193;-78
2023/04/11 03:00:31;;;;;;;4.63;1.30;;;22.80;99.90;;;;;;5124131;27;20209;-78
2023/04/11 03:03:02;;;;;;;4.22;1.10;;;22.90;99.90;;;;;;5099004;28;20266;-80
2023/04/11 03:05:33;;;;;;;5.47;1.10;;;23.10;99.90;;;;;;5102777;28;20194;-77
2023/04/11 03:08:07;;;;;;;4.55;1.10;;;23.10;99.90;;;;;;5097802;27;20209;-77
2023/04/11 03:10:40;;;;;;;2.67;1.10;;;23.20;99.90;;;;;;5099783;27;20197;-77
2023/04/11 03:13:11;;;;;;;4.57;1.10;;;23.10;99.90;;;;;;5097629;27;20198;-77
2023/04/11 03:15:42;;;;;;;2.15;1.02;;;23.00;99.90;;;;;;5103995;28;20198;-77
2023/04/11 03:18:14;;;;;;;6.82;1.27;;;23.10;99.90;;;;;;5095823;27;20225;-77
2023/04/11 03:20:45;;;;;;;3.55;0.95;;;23.10;99.90;;;;;;5097238;28;20924;-78
2023/04/11 03:23:16;;;;;;;2.55;1.20;;;23.20;99.90;;;;;;5094584;28;20238;-76
2023/04/11 03:25:49;;;;;;;1.90;0.90;;;23.20;99.90;;;;;;5114526;27;20246;-78
2023/04/11 03:28:20;;;;;;;5.13;1.00;;;23.30;99.90;;;;;;5117843;27;20199;-77
2023/04/11 03:30:52;;;;;;;3.20;1.20;;;23.40;99.90;;;;;;5112139;28;20253;-78
2023/04/11 03:33:23;;;;;;;3.47;1.00;;;23.40;99.90;;;;;;5131553;27;20213;-78
2023/04/11 03:35:54;;;;;;;3.13;1.15;;;23.40;99.90;;;;;;5130749;28;20198;-77
2023/04/11 03:38:25;;;;;;;2.10;0.93;;;23.40;99.60;;;;;;5130492;27;20233;-77
2023/04/11 03:40:58;;;;;;;3.65;0.93;;;23.40;99.10;;;;;;5130180;27;20831;-77
2023/04/11 03:43:29;;;;;;;3.00;0.80;;;23.40;99.20;;;;;;5131446;27;20226;-77
2023/04/11 03:46:00;;;;;;;3.60;1.05;;;23.40;99.80;;;;;;5131170;27;20285;-78
2023/04/11 03:48:31;;;;;;;3.45;1.00;;;23.30;99.90;;;;;;5131285;27;20723;-78
2023/04/11 03:51:02;;;;;;;3.78;1.30;;;23.20;99.90;;;;;;5130106;27;20202;-78
2023/04/11 03:53:33;;;;;;;5.20;1.65;;;23.20;99.90;;;;;;5128823;27;20194;-76
2023/04/11 03:56:07;;;;;;;5.35;1.40;;;23.10;99.90;;;;;;5110415;28;20689;-77
2023/04/11 03:58:38;;;;;;;1.65;0.80;;;23.20;99.90;;;;;;5113056;28;20194;-78
2023/04/11 04:01:09;;;;;;;4.35;1.23;;;23.10;99.90;;;;;;5115780;28;20195;-78
2023/04/11 04:03:40;;;;;;;5.03;1.20;;;23.10;99.90;;;;;;5122597;27;20236;-77
2023/04/11 04:06:11;;;;;;;3.03;1.17;;;23.10;99.90;;;;;;5136246;27;20229;-77
2023/04/11 04:08:42;;;;;;;2.67;0.80;;;23.00;99.90;;;;;;5136344;27;20209;-78
2023/04/11 04:11:15;;;;;;;6.90;1.30;;;22.80;99.90;;;;;;5134063;27;20224;-79
2023/04/11 04:13:47;;;;;;;5.13;1.00;;;22.80;99.90;;;;;;5135788;27;20217;-78
2023/04/11 04:16:18;;;;;;;4.18;1.08;;;22.70;99.90;;;;;;5115845;28;20676;-78
2023/04/11 04:18:49;;;;;;;5.97;1.88;;;22.50;99.90;;;;;;5115879;28;20199;-78
2023/04/11 04:21:20;;;;;;;4.57;1.27;;;22.50;99.90;;;;;;5115545;28;20201;-78
2023/04/11 04:23:52;;;;;;;3.78;1.08;;;22.30;99.90;;;;;;5114928;28;20608;-78
2023/04/11 04:26:28;;;;;;;2.65;1.10;;;22.20;99.90;;;;;;5132410;27;20214;-77
2023/04/11 04:29:03;;;;;;;4.70;1.30;;;22.20;99.90;;;;;;5136104;27;20670;-78
2023/04/11 04:31:35;;;;;;;5.88;1.17;;;22.10;99.90;;;;;;5136041;27;20650;-78
2023/04/11 04:34:07;;;;;;;4.95;1.35;;;22.10;99.90;;;;;;5136474;27;20189;-78
2023/04/11 04:36:45;;;;;;;3.47;1.02;;;22.10;99.90;;;;;;5115733;28;20214;-78
2023/04/11 04:39:19;;;;;;;7.40;1.40;;;22.10;99.90;;;;;;5133302;27;20205;-78
2023/04/11 04:41:57;;;;;;;7.75;1.40;;;22.30;99.90;;;;;;5128946;27;20679;-77
2023/04/11 04:44:28;;;;;;;6.70;1.45;;;22.30;99.90;;;;;;5123711;27;20301;-78
2023/04/11 04:46:59;;;;;;;3.80;1.00;;;22.30;99.90;;;;;;5134834;27;20197;-77
2023/04/11 04:49:30;;;;;;;6.68;1.40;;;22.30;99.90;;;;;;5135766;27;20315;-77
2023/04/11 04:52:01;;;;;;;3.85;1.20;;;22.20;99.90;;;;;;5135393;27;20209;-78
2023/04/11 04:54:32;;;;;;;6.55;1.80;;;22.20;99.90;;;;;;5133956;27;20198;-77
2023/04/11 04:57:05;;;;;;;5.22;1.20;;;22.20;99.90;;;;;;5125133;27;20198;-77
2023/04/11 04:59:36;;;;;;;3.47;1.30;;;22.20;99.90;;;;;;5135487;27;20671;-77
2023/04/11 05:02:08;;;;;;;4.68;1.15;;;22.30;99.90;;;;;;5134803;27;20645;-78
2023/04/11 05:04:39;;;;;;;5.70;1.25;;;22.20;99.90;;;;;;5134657;27;20236;-78
2023/04/11 05:07:12;;;;;;;6.40;1.50;;;22.20;99.90;;;;;;5135245;27;20193;-78
2023/04/11 05:09:43;;;;;;;4.57;1.30;;;22.10;99.90;;;;;;5134008;27;20675;-77
2023/04/11 05:12:16;;;;;;;5.45;1.30;;;22.00;99.90;;;;;;5134417;27;20243;-77
2023/04/11 05:14:46;;;;;;;4.30;1.48;;;22.00;99.90;;;;;;5133709;27;20191;-77
2023/04/11 05:17:17;;;;;;;5.55;1.17;;;21.90;99.90;;;;;;5134787;27;20202;-78
2023/04/11 05:19:48;;;;;;;6.07;1.30;;;21.80;99.90;;;;;;5135137;27;20198;-77
2023/04/11 05:22:18;;;;;;;5.60;1.13;;;21.80;99.90;;;;;;5134230;27;20285;-77
2023/04/11 05:24:50;;;;;;;6.68;1.20;;;21.80;99.90;;;;;;5133065;27;20225;-77
2023/04/11 05:27:26;;;;;;;6.53;1.45;;;21.70;99.90;;;;;;5134035;27;20197;-77
2023/04/11 05:29:59;;;;;;;4.75;1.55;;;21.70;99.90;;;;;;5134445;27;20289;-77
2023/04/11 05:32:30;;;;;;;6.80;1.52;;;21.70;99.90;;;;;;5131372;27;20294;-78
2023/04/11 05:35:01;;;;;;;8.73;1.70;;;21.70;99.90;;;;;;5134146;27;21097;-77
2023/04/11 05:37:31;;;;;;;7.38;1.30;;;21.60;99.90;;;;;;5131579;27;20190;-77
2023/04/11 05:40:02;;;;;;;8.85;1.90;;;21.50;99.90;;;;;;5132499;27;20254;-78
2023/04/11 05:42:35;;;;;;;7.18;1.50;;;21.50;99.90;;;;;;5130305;27;20209;-78
2023/04/11 05:45:06;;;;;;;6.35;1.45;;;21.40;99.90;;;;;;5115015;27;20234;-78
2023/04/11 05:47:36;;;;;;;9.00;1.60;;;21.40;99.90;;;;;;5125073;27;20229;-77
2023/04/11 05:50:08;;;;;;;6.45;1.55;;;21.40;99.90;;;;;;5131120;27;20204;-78
2023/04/11 05:52:38;;;;;;;4.38;1.25;;;21.30;99.90;;;;;;5120676;27;20293;-78
2023/04/11 05:55:09;;;;;;;9.75;1.70;;;21.30;99.90;;;;;;5123018;27;20205;-77
2023/04/11 05:57:42;;;;;;;7.57;1.50;;;21.40;99.90;;;;;;5133916;27;20202;-76
2023/04/11 06:00:15;;;;;;;7.63;1.88;;;21.30;99.90;;;;;;5127170;27;20186;-78
2023/04/11 06:02:47;;;;;;;5.38;1.65;;;21.30;99.90;;;;;;5114115;27;20191;-77
2023/04/11 06:05:20;;;;;;;8.05;1.48;;;21.30;99.90;;;;;;5128280;27;20297;-78
2023/04/11 06:07:51;;;;;;;7.28;1.58;;;21.20;99.90;;;;;;5126921;27;20194;-77
2023/04/11 06:10:23;;;;;;;6.93;1.67;;;21.20;99.90;;;;;;5126748;27;20297;-78
2023/04/11 06:12:56;;;;;;;13.30;2.22;;;21.20;99.90;;;;;;5119831;27;20186;-78
2023/04/11 06:15:27;;;;;;;8.13;1.52;;;21.20;99.90;;;;;;5126756;27;20194;-78
2023/04/11 06:17:58;;;;;;;8.18;1.60;;;21.20;99.90;;;;;;5130404;27;20284;-77
2023/04/11 06:20:28;;;;;;;10.57;2.10;;;21.10;99.90;;;;;;5126395;27;20562;-77
2023/04/11 06:23:00;;;;;;;10.25;1.88;;;21.10;99.90;;;;;;5127626;27;20290;-78
2023/04/11 06:25:30;;;;;;;6.07;1.60;;;21.10;99.90;;;;;;5128468;27;20229;-77
2023/04/11 06:28:04;;;;;;;7.30;1.70;;;21.10;99.90;;;;;;5127866;27;20202;-77
2023/04/11 06:30:34;;;;;;;8.02;1.50;;;21.10;99.90;;;;;;5126442;27;20195;-77
2023/04/11 06:33:06;;;;;;;11.15;1.80;;;21.10;99.90;;;;;;5116388;27;20202;-76
2023/04/11 06:35:37;;;;;;;2.75;1.10;;;21.10;99.90;;;;;;5132147;27;20594;-77
2023/04/11 06:38:08;;;;;;;3.80;1.35;;;21.10;99.90;;;;;;5132438;27;20208;-77
2023/04/11 06:40:51;;;;;;;6.78;1.52;;;21.10;99.90;;;;;;5133197;27;20530;-79
2023/04/11 06:43:23;;;;;;;8.73;1.80;;;21.10;99.90;;;;;;5133650;27;20204;-77
2023/04/11 06:45:54;;;;;;;6.80;1.77;;;21.20;99.90;;;;;;5132005;27;20198;-78
2023/04/11 06:48:25;;;;;;;6.60;1.70;;;21.10;99.90;;;;;;5134187;27;20238;-78
2023/04/11 06:50:55;;;;;;;7.13;2.00;;;21.20;99.90;;;;;;5131560;27;20247;-78
2023/04/11 06:53:26;;;;;;;5.38;1.52;;;21.20;99.90;;;;;;5131364;27;20198;-77
2023/04/11 06:55:57;;;;;;;7.43;1.85;;;21.20;99.90;;;;;;5131739;27;20193;-77
2023/04/11 06:58:29;;;;;;;7.43;1.25;;;21.30;99.90;;;;;;5134787;27;20201;-77
2023/04/11 07:01:00;;;;;;;4.18;1.27;;;21.30;99.90;;;;;;5130272;27;20194;-76
2023/04/11 07:03:31;;;;;;;3.17;0.80;;;21.20;99.90;;;;;;5130009;27;20198;-77
2023/04/11 07:06:02;;;;;;;4.07;1.10;;;21.20;99.90;;;;;;5131305;27;20925;-77
2023/04/11 07:08:32;;;;;;;5.72;1.13;;;21.30;99.90;;;;;;5131851;27;20495;-76
2023/04/11 07:11:03;;;;;;;5.07;1.50;;;21.30;99.90;;;;;;5131008;27;20568;-77
2023/04/11 07:13:36;;;;;;;3.78;1.27;;;21.20;99.90;;;;;;5122976;27;20190;-76
2023/04/11 07:16:07;;;;;;;4.53;1.65;;;21.20;99.90;;;;;;5123406;28;20540;-77
2023/04/11 07:18:38;;;;;;;3.42;1.27;;;21.10;99.90;;;;;;5110992;28;20255;-77
2023/04/11 07:21:12;;;;;;;4.72;1.00;;;21.10;99.90;;;;;;5116371;28;20190;-76
2023/04/11 07:23:44;;;;;;;4.50;1.42;;;21.10;99.90;;;;;;5116950;27;20214;-78
2023/04/11 07:26:16;;;;;;;4.05;1.50;;;21.10;99.90;;;;;;5126858;28;20205;-77
2023/04/11 07:28:50;;;;;;;6.90;1.45;;;21.00;99.90;;;;;;5124347;27;20653;-77
2023/04/11 07:31:21;;;;;;;6.57;1.55;;;20.90;99.90;;;;;;5130493;27;20220;-76
2023/04/11 07:33:52;;;;;;;5.63;1.90;;;20.90;99.90;;;;;;5133235;27;20708;-77
2023/04/11 07:36:23;;;;;;;11.73;2.65;;;20.90;99.90;;;;;;5135430;27;20213;-76
2023/04/11 07:38:54;;;;;;;4.57;1.52;;;20.80;99.90;;;;;;5132954;27;20190;-76
2023/04/11 07:41:25;;;;;;;4.65;1.33;;;20.80;99.90;;;;;;5133256;27;20198;-76
2023/04/11 07:43:58;;;;;;;4.97;1.75;;;20.70;99.90;;;;;;5132253;27;20194;-77
2023/04/11 07:46:29;;;;;;;5.05;1.63;;;20.70;99.90;;;;;;5124298;27;20571;-77
2023/04/11 07:49:00;;;;;;;4.90;1.45;;;20.70;99.90;;;;;;5119283;27;20194;-77
2023/04/11 07:51:32;;;;;;;6.78;1.55;;;20.60;99.90;;;;;;5134953;27;20202;-77
2023/04/11 07:54:03;;;;;;;4.60;1.50;;;20.60;99.90;;;;;;5121041;27;20205;-76
2023/04/11 07:56:34;;;;;;;5.68;2.15;;;20.50;99.90;;;;;;5131339;27;20201;-77
2023/04/11 07:59:07;;;;;;;5.93;2.10;;;20.60;99.90;;;;;;5135269;27;20205;-76
2023/04/11 08:01:38;;;;;;;6.00;1.65;;;20.50;99.90;;;;;;5136591;27;20198;-77
2023/04/11 08:04:09;;;;;;;11.45;4.68;;;20.50;99.90;;;;;;5133631;27;20210;-77
2023/04/11 08:06:42;;;;;;;11.13;3.22;;;20.50;99.90;;;;;;5132956;27;20243;-77
2023/04/11 08:09:13;;;;;;;7.88;2.58;;;20.50;99.90;;;;;;5134337;27;20193;-77
2023/04/11 08:11:44;;;;;;;6.18;2.15;;;20.40;99.90;;;;;;5134058;27;20193;-77
2023/04/11 08:14:17;;;;;;;10.75;2.38;;;20.40;99.90;;;;;;5134284;27;20697;-77
2023/04/11 08:16:49;;;;;;;8.73;2.70;;;20.40;99.90;;;;;;5134043;27;20591;-77
2023/04/11 08:19:20;;;;;;;11.63;4.93;;;20.40;99.90;;;;;;5133987;27;20194;-78
2023/04/11 08:21:51;;;;;;;7.18;3.00;;;20.40;99.90;;;;;;5133036;27;20194;-78
2023/04/11 08:24:22;;;;;;;5.03;1.73;;;20.30;99.90;;;;;;5133962;27;20249;-77
2023/04/11 08:26:53;;;;;;;9.05;3.50;;;20.40;99.90;;;;;;5134266;27;20205;-77
2023/04/11 08:29:26;;;;;;;10.75;3.60;;;20.30;99.90;;;;;;5134382;27;20197;-76
2023/04/11 08:31:58;;;;;;;6.50;2.63;;;20.30;99.90;;;;;;5134265;27;20216;-77
2023/04/11 08:34:29;;;;;;;9.65;2.10;;;20.20;99.90;;;;;;5133827;27;20201;-77
2023/04/11 08:37:00;;;;;;;4.97;2.30;;;20.30;99.90;;;;;;5125118;27;20206;-77
2023/04/11 08:39:31;;;;;;;6.25;1.77;;;20.20;99.90;;;;;;5129512;27;20198;-76
2023/04/11 08:42:02;;;;;;;7.70;3.08;;;20.20;99.90;;;;;;5123826;27;20202;-77
2023/04/11 08:44:37;;;;;;;19.55;7.22;;;20.10;99.90;;;;;;5132871;27;20795;-77
2023/04/11 08:47:09;;;;;;;15.95;8.60;;;20.10;99.90;;;;;;5132491;27;20197;-77
2023/04/11 08:49:40;;;;;;;11.85;5.60;;;20.10;99.90;;;;;;5133596;27;20220;-78
2023/04/11 08:52:11;;;;;;;7.38;3.45;;;20.10;99.90;;;;;;5133042;27;20544;-78
2023/04/11 08:54:42;;;;;;;12.15;4.78;;;20.00;99.90;;;;;;5133989;27;20205;-77
2023/04/11 08:57:24;;;;;;;6.65;2.70;;;20.10;99.90;;;;;;5132609;27;20216;-77
2023/04/11 08:59:59;;;;;;;8.40;2.97;;;20.10;99.90;;;;;;5131031;27;20714;-76
2023/04/11 09:02:30;;;;;;;5.60;1.77;;;20.10;99.90;;;;;;5133341;27;20204;-77
2023/04/11 09:05:01;;;;;;;6.75;3.13;;;20.20;99.90;;;;;;5136981;27;20233;-77
2023/04/11 09:07:49;;;;;;;6.30;3.10;;;20.10;99.90;;;;;;5133139;27;20584;-77
2023/04/11 09:10:24;;;;;;;6.72;4.00;;;20.10;99.90;;;;;;5128127;27;20568;-77
2023/04/11 09:12:55;;;;;;;6.65;3.05;;;20.10;99.90;;;;;;5133462;27;20203;-76
2023/04/11 09:15:29;;;;;;;7.63;1.88;;;20.00;99.90;;;;;;5128440;27;20186;-76
2023/04/11 09:18:00;;;;;;;5.43;2.10;;;20.00;99.90;;;;;;5119813;27;20198;-76
2023/04/11 09:20:31;;;;;;;10.60;4.38;;;19.90;99.90;;;;;;5114540;27;20201;-76
2023/04/11 09:23:02;;;;;;;27.52;9.15;;;19.90;99.90;;;;;;5113031;28;20237;-76
2023/04/11 09:25:46;;;;;;;13.90;5.60;;;19.90;99.90;;;;;;5131214;27;20230;-76
2023/04/11 09:28:19;;;;;;;6.65;3.47;;;19.80;99.90;;;;;;5132974;27;20251;-76
2023/04/11 09:30:54;;;;;;;9.82;4.35;;;19.80;99.90;;;;;;5132760;27;20205;-77
2023/04/11 09:33:30;;;;;;;8.13;3.70;;;19.80;99.90;;;;;;5131675;27;20198;-76
2023/04/11 09:36:01;;;;;;;9.77;3.55;;;19.80;99.90;;;;;;5133578;27;20281;-77
2023/04/11 09:38:34;;;;;;;12.10;3.35;;;19.80;99.90;;;;;;5129370;27;20205;-77
2023/04/11 09:41:06;;;;;;;7.50;2.85;;;19.80;99.90;;;;;;5129317;27;20194;-77
2023/04/11 09:43:52;;;;;;;10.80;3.95;;;19.80;99.90;;;;;;5132820;27;20572;-77
2023/04/11 09:46:25;;;;;;;10.02;3.15;;;19.80;99.90;;;;;;5132346;27;20671;-77
2023/04/11 09:48:56;;;;;;;6.60;3.30;;;19.80;99.90;;;;;;5132637;27;20570;-78
2023/04/11 09:51:28;;;;;;;9.98;3.25;;;19.80;99.90;;;;;;5131856;27;20563;-77
2023/04/11 09:53:59;;;;;;;10.93;4.43;;;19.80;99.90;;;;;;5132959;27;20202;-76
2023/04/11 09:56:30;;;;;;;11.40;5.20;;;19.70;99.90;;;;;;5133085;27;20217;-77
2023/04/11 09:59:02;;;;;;;10.82;4.18;;;19.80;99.90;;;;;;5115429;27;20198;-77
2023/04/11 10:01:35;;;;;;;8.95;3.83;;;19.80;99.90;;;;;;5118508;27;20193;-77
2023/04/11 10:04:09;;;;;;;7.43;3.30;;;19.70;99.90;;;;;;5124543;27;20198;-77
2023/04/11 10:06:47;;;;;;;8.85;2.70;;;19.70;99.90;;;;;;5132284;27;20274;-77
2023/04/11 10:09:18;;;;;;;8.90;2.90;;;19.70;99.90;;;;;;5132787;27;20193;-77
2023/04/11 10:11:49;;;;;;;7.93;2.83;;;19.70;99.90;;;;;;5132571;27;20190;-77
2023/04/11 10:14:44;;;;;;;13.02;5.47;;;19.70;99.90;;;;;;5132236;27;20190;-77
2023/04/11 10:17:18;;;;;;;5.75;2.55;;;19.70;99.90;;;;;;5129306;27;20202;-77
2023/04/11 10:19:50;;;;;;;8.38;2.53;;;19.60;99.90;;;;;;5131122;27;20217;-77
2023/04/11 10:23:02;;;;;;;6.78;2.17;;;19.60;99.90;;;;;;5130189;27;20193;-77
2023/04/11 10:25:43;;;;;;;8.02;2.47;;;19.60;99.90;;;;;;5123781;27;20241;-77
2023/04/11 10:28:33;;;;;;;6.82;2.10;;;19.60;99.90;;;;;;5133723;27;20194;-77
2023/04/11 10:31:12;;;;;;;6.10;2.30;;;19.50;99.90;;;;;;5135032;27;20644;-77
2023/04/11 10:34:15;;;;;;;5.97;2.42;;;19.50;99.90;;;;;;5133222;27;20204;-77
2023/04/11 10:37:12;;;;;;;6.55;2.20;;;19.50;99.90;;;;;;5116986;27;20193;-77
2023/04/11 10:40:08;;;;;;;5.97;2.22;;;19.40;99.90;;;;;;5079365;27;20190;-77
2023/04/11 10:42:40;;;;;;;8.10;2.25;;;19.50;99.90;;;;;;5133051;27;20197;-77
2023/04/11 10:45:31;;;;;;;5.85;2.05;;;19.50;99.90;;;;;;5113790;28;20203;-78
2023/04/11 10:48:10;;;;;;;8.05;2.50;;;19.50;99.90;;;;;;5114135;28;20665;-78
2023/04/11 10:50:45;;;;;;;10.68;2.22;;;19.50;99.90;;;;;;5128778;28;20257;-78
2023/04/11 10:53:38;;;;;;;7.68;2.63;;;19.40;99.90;;;;;;5135583;27;20216;-77
2023/04/11 10:56:14;;;;;;;12.02;3.60;;;19.40;99.90;;;;;;5134533;27;20209;-76
2023/04/11 10:58:45;;;;;;;9.50;2.55;;;19.40;99.90;;;;;;5134181;27;20201;-77
2023/04/11 11:01:19;;;;;;;6.50;2.30;;;19.40;99.90;;;;;;5135779;27;20197;-76
2023/04/11 11:03:59;;;;;;;7.32;2.70;;;19.40;99.90;;;;;;5130939;27;20194;-76
2023/04/11 11:06:35;;;;;;;9.73;2.80;;;19.30;99.90;;;;;;5114644;28;20210;-77
2023/04/11 11:09:23;;;;;;;6.38;2.70;;;19.30;99.90;;;;;;5115371;28;20194;-78
2023/04/11 11:12:11;;;;;;;4.88;2.30;;;19.30;99.90;;;;;;5126342;27;20186;-76
2023/04/11 11:14:44;;;;;;;8.02;2.58;;;19.30;99.90;;;;;;5136878;27;20641;-76
2023/04/11 11:17:16;;;;;;;4.43;2.30;;;19.30;99.90;;;;;;5139449;27;20194;-77
2023/04/11 11:19:48;;;;;;;6.20;2.22;;;19.30;99.90;;;;;;5139533;27;20222;-77
2023/04/11 11:22:25;;;;;;;5.97;1.80;;;19.30;99.90;;;;;;5138689;27;20660;-77
2023/04/11 11:24:56;;;;;;;5.53;1.95;;;19.30;99.90;;;;;;5139375;27;20228;-77
2023/04/11 11:27:27;;;;;;;8.68;2.17;;;19.20;99.90;;;;;;5138993;27;20194;-77
2023/04/11 11:29:59;;;;;;;6.95;4.32;;;19.20;99.90;;;;;;5137791;27;20201;-77
2023/04/11 11:32:31;;;;;;;9.82;3.95;;;19.10;99.90;;;;;;5138676;27;20198;-75
2023/04/11 11:35:13;;;;;;;6.38;2.72;;;19.10;99.90;;;;;;5138676;27;20223;-77
2023/04/11 11:37:49;;;;;;;7.40;3.00;;;19.10;99.90;;;;;;5118126;28;20203;-77
2023/04/11 11:40:22;;;;;;;5.10;2.15;;;19.00;99.90;;;;;;5117754;28;20206;-77
2023/04/11 11:42:55;;;;;;;5.85;2.13;;;19.00;99.90;;;;;;5117947;28;20631;-76
2023/04/11 11:45:26;;;;;;;4.68;2.08;;;19.00;99.90;;;;;;5117491;27;20214;-76
2023/04/11 11:47:57;;;;;;;5.07;2.20;;;18.90;99.90;;;;;;5129964;27;20209;-76
2023/04/11 11:50:30;;;;;;;5.22;2.13;;;18.90;99.90;;;;;;5134753;27;20268;-76
2023/04/11 11:53:18;;;;;;;5.18;2.50;;;18.90;99.90;;;;;;5116726;28;20198;-76
2023/04/11 11:55:50;;;;;;;8.00;2.80;;;18.90;99.90;;;;;;5129509;27;20641;-77
2023/04/11 11:58:22;;;;;;;3.97;2.10;;;18.90;99.90;;;;;;5131051;27;20190;-77
2023/04/11 12:00:54;;;;;;;6.13;2.15;;;19.00;99.90;;;;;;5137264;27;20194;-77
2023/04/11 12:03:28;;;;;;;5.80;2.25;;;18.90;99.90;;;;;;5125466;27;20549;-76
2023/04/11 12:05:59;;;;;;;7.13;2.17;;;18.90;99.90;;;;;;5120267;27;20226;-76
2023/04/11 12:08:42;;;;;;;5.97;2.10;;;18.90;99.90;;;;;;5116794;28;20561;-76
2023/04/11 12:11:17;;;;;;;5.30;1.90;;;18.80;99.90;;;;;;5115234;28;20205;-76
2023/04/11 12:13:53;;;;;;;7.50;1.95;;;18.80;99.90;;;;;;5120104;27;20193;-76
2023/04/11 12:16:29;;;;;;;6.07;2.25;;;18.80;99.90;;;;;;5134386;27;20205;-75
2023/04/11 12:19:02;;;;;;;7.80;2.33;;;18.80;99.90;;;;;;5132617;27;20190;-75
2023/04/11 12:21:33;;;;;;;5.57;2.08;;;18.80;99.90;;;;;;5131656;27;20198;-76
2023/04/11 12:24:06;;;;;;;7.63;2.20;;;18.80;99.90;;;;;;5114195;28;20232;-75
2023/04/11 12:26:38;;;;;;;5.28;1.75;;;18.80;99.90;;;;;;5113951;28;20235;-76
2023/04/11 12:29:10;;;;;;;6.15;1.75;;;18.80;99.90;;;;;;5132206;27;20190;-76
2023/04/11 12:31:42;;;;;;;6.68;1.90;;;18.70;99.90;;;;;;5134016;27;20198;-76
2023/04/11 12:34:13;;;;;;;5.13;2.10;;;18.70;99.90;;;;;;5134281;27;20198;-76
2023/04/11 12:36:44;;;;;;;7.90;2.33;;;18.70;99.90;;;;;;5132185;27;20206;-76
2023/04/11 12:39:17;;;;;;;7.30;2.15;;;18.60;99.90;;;;;;5130370;27;20579;-78
2023/04/11 12:41:49;;;;;;;10.75;2.22;;;18.60;99.90;;;;;;5119887;27;20198;-76
2023/04/11 12:44:20;;;;;;;8.05;1.80;;;18.60;99.90;;;;;;5133197;27;20197;-77
2023/04/11 12:46:51;;;;;;;5.15;1.80;;;18.60;99.90;;;;;;5133178;27;20220;-77
2023/04/11 12:49:22;;;;;;;5.95;1.80;;;18.60;99.90;;;;;;5133469;27;20200;-75
2023/04/11 12:51:53;;;;;;;3.60;1.50;;;18.60;99.90;;;;;;5132529;27;20189;-77
2023/04/11 12:54:26;;;;;;;4.05;1.83;;;18.50;99.90;;;;;;5132771;27;20198;-77
2023/04/11 12:56:58;;;;;;;5.07;1.60;;;18.40;99.90;;;;;;5119502;27;20568;-76
2023/04/11 12:59:29;;;;;;;4.80;1.35;;;18.50;99.90;;;;;;5136068;27;20190;-76
2023/04/11 13:02:00;;;;;;;5.28;1.58;;;18.50;99.90;;;;;;5130928;27;20201;-76
2023/04/11 13:04:31;;;;;;;3.67;1.40;;;18.50;99.90;;;;;;5135734;27;20194;-76
2023/04/11 13:07:02;;;;;;;3.83;1.30;;;18.50;99.90;;;;;;5135079;27;20221;-76
2023/04/11 13:09:36;;;;;;;5.00;1.45;;;18.50;99.90;;;;;;5133584;27;20563;-76
2023/04/11 13:12:07;;;;;;;4.63;1.35;;;18.50;99.90;;;;;;5133159;27;20207;-75
2023/04/11 13:14:38;;;;;;;3.70;1.40;;;18.50;99.90;;;;;;5140997;27;20198;-76